sensor_id;sensor_type;location;lat;lon;timestamp;P1;durP1;ratioP1;P2;durP2;ratioP2
49854;SDS011;35752;52.164;21.244;2022-07-11T00:02:08;5.03;;;3.10;;
49854;SDS011;35752;52.164;21.244;2022-07-11T00:04:36;3.85;;;2.78;;
49854;SDS011;35752;52.164;21.244;2022-07-11T00:07:02;5.28;;;3.10;;
49854;SDS011;35752;52.164;21.244;2022-07-11T00:09:28;5.80;;;2.50;;
49854;SDS011;35752;52.164;21.244;2022-07-11T00:11:55;2.70;;;2.50;;
49854;SDS011;35752;52.164;21.244;2022-07-11T00:14:22;5.57;;;2.95;;
49854;SDS011;35752;52.164;21.244;2022-07-11T00:16:49;7.70;;;2.58;;
49854;SDS011;35752;52.164;21.244;2022-07-11T00:19:15;3.08;;;2.45;;
49854;SDS011;35752;52.164;21.244;2022-07-11T00:21:41;4.10;;;2.30;;
49854;SDS011;35752;52.164;21.244;2022-07-11T00:24:07;6.25;;;2.65;;
49854;SDS011;35752;52.164;21.244;2022-07-11T00:26:34;6.57;;;3.03;;
49854;SDS011;35752;52.164;21.244;2022-07-11T00:29:00;16.33;;;3.33;;
49854;SDS011;35752;52.164;21.244;2022-07-11T00:31:26;6.20;;;2.47;;
49854;SDS011;35752;52.164;21.244;2022-07-11T00:33:53;5.53;;;2.45;;
49854;SDS011;35752;52.164;21.244;2022-07-11T00:36:19;11.63;;;3.08;;
49854;SDS011;35752;52.164;21.244;2022-07-11T00:38:45;12.88;;;2.85;;
49854;SDS011;35752;52.164;21.244;2022-07-11T00:41:11;12.75;;;3.25;;
49854;SDS011;35752;52.164;21.244;2022-07-11T00:43:37;7.72;;;2.75;;
49854;SDS011;35752;52.164;21.244;2022-07-11T00:46:04;5.25;;;3.03;;
49854;SDS011;35752;52.164;21.244;2022-07-11T00:48:31;8.32;;;2.65;;
49854;SDS011;35752;52.164;21.244;2022-07-11T00:50:57;3.88;;;2.63;;
49854;SDS011;35752;52.164;21.244;2022-07-11T00:53:24;7.75;;;2.35;;
49854;SDS011;35752;52.164;21.244;2022-07-11T00:55:53;4.90;;;2.20;;
49854;SDS011;35752;52.164;21.244;2022-07-11T00:58:19;6.75;;;3.00;;
49854;SDS011;35752;52.164;21.244;2022-07-11T01:00:45;4.00;;;2.75;;
49854;SDS011;35752;52.164;21.244;2022-07-11T01:03:11;3.40;;;2.70;;
49854;SDS011;35752;52.164;21.244;2022-07-11T01:05:37;6.05;;;2.75;;
49854;SDS011;35752;52.164;21.244;2022-07-11T01:08:03;4.03;;;2.17;;
49854;SDS011;35752;52.164;21.244;2022-07-11T01:10:29;2.88;;;2.53;;
49854;SDS011;35752;52.164;21.244;2022-07-11T01:12:56;5.78;;;2.70;;
49854;SDS011;35752;52.164;21.244;2022-07-11T01:15:22;2.92;;;2.58;;
49854;SDS011;35752;52.164;21.244;2022-07-11T01:17:49;5.55;;;2.63;;
49854;SDS011;35752;52.164;21.244;2022-07-11T01:20:21;6.43;;;2.75;;
49854;SDS011;35752;52.164;21.244;2022-07-11T01:22:53;3.05;;;2.38;;
49854;SDS011;35752;52.164;21.244;2022-07-11T01:25:22;2.85;;;2.47;;
49854;SDS011;35752;52.164;21.244;2022-07-11T01:30:27;4.70;;;2.83;;
49854;SDS011;35752;52.164;21.244;2022-07-11T01:32:54;4.50;;;2.38;;
49854;SDS011;35752;52.164;21.244;2022-07-11T01:35:21;6.90;;;2.38;;
49854;SDS011;35752;52.164;21.244;2022-07-11T01:37:47;3.83;;;2.40;;
49854;SDS011;35752;52.164;21.244;2022-07-11T01:40:13;5.03;;;2.47;;
49854;SDS011;35752;52.164;21.244;2022-07-11T01:42:39;8.10;;;3.17;;
49854;SDS011;35752;52.164;21.244;2022-07-11T01:45:06;3.05;;;2.17;;
49854;SDS011;35752;52.164;21.244;2022-07-11T01:47:32;8.45;;;2.83;;
49854;SDS011;35752;52.164;21.244;2022-07-11T01:49:58;6.10;;;2.78;;
49854;SDS011;35752;52.164;21.244;2022-07-11T01:52:24;3.88;;;2.42;;
49854;SDS011;35752;52.164;21.244;2022-07-11T01:54:49;3.22;;;2.20;;
49854;SDS011;35752;52.164;21.244;2022-07-11T01:57:15;3.50;;;1.95;;
49854;SDS011;35752;52.164;21.244;2022-07-11T01:59:41;5.57;;;2.20;;
49854;SDS011;35752;52.164;21.244;2022-07-11T02:02:07;2.90;;;1.77;;
49854;SDS011;35752;52.164;21.244;2022-07-11T02:04:33;3.03;;;2.03;;
49854;SDS011;35752;52.164;21.244;2022-07-11T02:06:59;3.60;;;2.15;;
49854;SDS011;35752;52.164;21.244;2022-07-11T02:09:24;2.60;;;1.90;;
49854;SDS011;35752;52.164;21.244;2022-07-11T02:11:50;5.70;;;2.22;;
49854;SDS011;35752;52.164;21.244;2022-07-11T02:14:16;4.28;;;2.00;;
49854;SDS011;35752;52.164;21.244;2022-07-11T02:16:41;2.78;;;1.95;;
49854;SDS011;35752;52.164;21.244;2022-07-11T02:19:07;3.92;;;1.88;;
49854;SDS011;35752;52.164;21.244;2022-07-11T02:21:35;8.77;;;2.67;;
49854;SDS011;35752;52.164;21.244;2022-07-11T02:24:01;5.82;;;2.47;;
49854;SDS011;35752;52.164;21.244;2022-07-11T02:26:28;3.00;;;1.85;;
49854;SDS011;35752;52.164;21.244;2022-07-11T02:28:54;5.65;;;2.03;;
49854;SDS011;35752;52.164;21.244;2022-07-11T02:31:19;8.00;;;2.05;;
49854;SDS011;35752;52.164;21.244;2022-07-11T02:33:46;3.60;;;2.63;;
49854;SDS011;35752;52.164;21.244;2022-07-11T02:36:11;4.85;;;1.80;;
49854;SDS011;35752;52.164;21.244;2022-07-11T02:38:37;3.88;;;2.03;;
49854;SDS011;35752;52.164;21.244;2022-07-11T02:41:03;3.30;;;1.80;;
49854;SDS011;35752;52.164;21.244;2022-07-11T02:43:29;2.90;;;1.67;;
49854;SDS011;35752;52.164;21.244;2022-07-11T02:45:55;3.03;;;1.48;;
49854;SDS011;35752;52.164;21.244;2022-07-11T02:48:21;6.75;;;2.28;;
49854;SDS011;35752;52.164;21.244;2022-07-11T02:50:47;6.05;;;2.28;;
49854;SDS011;35752;52.164;21.244;2022-07-11T02:53:13;3.10;;;1.80;;
49854;SDS011;35752;52.164;21.244;2022-07-11T02:55:39;3.65;;;2.38;;
49854;SDS011;35752;52.164;21.244;2022-07-11T02:58:04;4.60;;;2.53;;
49854;SDS011;35752;52.164;21.244;2022-07-11T03:00:31;4.43;;;2.78;;
49854;SDS011;35752;52.164;21.244;2022-07-11T03:02:57;9.35;;;3.00;;
49854;SDS011;35752;52.164;21.244;2022-07-11T03:05:23;9.18;;;3.20;;
49854;SDS011;35752;52.164;21.244;2022-07-11T03:07:48;11.55;;;4.03;;
49854;SDS011;35752;52.164;21.244;2022-07-11T03:10:14;14.02;;;3.72;;
49854;SDS011;35752;52.164;21.244;2022-07-11T03:12:40;6.18;;;3.13;;
49854;SDS011;35752;52.164;21.244;2022-07-11T03:15:10;9.27;;;3.38;;
49854;SDS011;35752;52.164;21.244;2022-07-11T03:17:36;11.65;;;3.95;;
49854;SDS011;35752;52.164;21.244;2022-07-11T03:20:03;8.50;;;4.13;;
49854;SDS011;35752;52.164;21.244;2022-07-11T03:22:29;8.13;;;3.97;;
49854;SDS011;35752;52.164;21.244;2022-07-11T03:24:55;4.97;;;3.40;;
49854;SDS011;35752;52.164;21.244;2022-07-11T03:27:20;8.63;;;3.33;;
49854;SDS011;35752;52.164;21.244;2022-07-11T03:29:46;11.65;;;4.30;;
49854;SDS011;35752;52.164;21.244;2022-07-11T03:32:12;8.77;;;4.30;;
49854;SDS011;35752;52.164;21.244;2022-07-11T03:34:38;7.40;;;4.60;;
49854;SDS011;35752;52.164;21.244;2022-07-11T03:37:04;8.60;;;4.15;;
49854;SDS011;35752;52.164;21.244;2022-07-11T03:39:30;9.40;;;5.22;;
49854;SDS011;35752;52.164;21.244;2022-07-11T03:41:56;8.18;;;4.78;;
49854;SDS011;35752;52.164;21.244;2022-07-11T03:44:22;10.82;;;5.13;;
49854;SDS011;35752;52.164;21.244;2022-07-11T03:46:49;11.77;;;5.43;;
49854;SDS011;35752;52.164;21.244;2022-07-11T03:49:15;10.27;;;4.78;;
49854;SDS011;35752;52.164;21.244;2022-07-11T03:51:40;8.73;;;3.28;;
49854;SDS011;35752;52.164;21.244;2022-07-11T03:54:06;9.27;;;5.03;;
49854;SDS011;35752;52.164;21.244;2022-07-11T03:56:32;9.00;;;5.50;;
49854;SDS011;35752;52.164;21.244;2022-07-11T03:58:57;9.32;;;4.78;;
49854;SDS011;35752;52.164;21.244;2022-07-11T04:01:23;7.28;;;4.20;;
49854;SDS011;35752;52.164;21.244;2022-07-11T04:03:49;7.95;;;4.38;;
49854;SDS011;35752;52.164;21.244;2022-07-11T04:06:15;8.80;;;4.47;;
49854;SDS011;35752;52.164;21.244;2022-07-11T04:08:41;9.43;;;4.95;;
49854;SDS011;35752;52.164;21.244;2022-07-11T04:11:07;11.95;;;4.15;;
49854;SDS011;35752;52.164;21.244;2022-07-11T04:13:33;9.27;;;4.53;;
49854;SDS011;35752;52.164;21.244;2022-07-11T04:15:59;12.43;;;4.55;;
49854;SDS011;35752;52.164;21.244;2022-07-11T04:18:25;11.10;;;4.72;;
49854;SDS011;35752;52.164;21.244;2022-07-11T04:20:51;9.32;;;4.20;;
49854;SDS011;35752;52.164;21.244;2022-07-11T04:23:17;9.02;;;4.60;;
49854;SDS011;35752;52.164;21.244;2022-07-11T04:25:43;8.07;;;3.65;;
49854;SDS011;35752;52.164;21.244;2022-07-11T04:28:09;8.68;;;4.20;;
49854;SDS011;35752;52.164;21.244;2022-07-11T04:30:35;5.60;;;3.38;;
49854;SDS011;35752;52.164;21.244;2022-07-11T04:33:00;5.60;;;3.30;;
49854;SDS011;35752;52.164;21.244;2022-07-11T04:35:26;9.70;;;4.05;;
49854;SDS011;35752;52.164;21.244;2022-07-11T04:37:53;8.27;;;3.47;;
49854;SDS011;35752;52.164;21.244;2022-07-11T04:40:19;8.70;;;3.17;;
49854;SDS011;35752;52.164;21.244;2022-07-11T04:42:48;13.20;;;3.63;;
49854;SDS011;35752;52.164;21.244;2022-07-11T04:45:15;10.20;;;3.67;;
49854;SDS011;35752;52.164;21.244;2022-07-11T04:47:40;9.90;;;3.63;;
49854;SDS011;35752;52.164;21.244;2022-07-11T04:50:07;8.05;;;3.50;;
49854;SDS011;35752;52.164;21.244;2022-07-11T04:52:33;6.25;;;2.97;;
49854;SDS011;35752;52.164;21.244;2022-07-11T04:55:00;6.50;;;3.17;;
49854;SDS011;35752;52.164;21.244;2022-07-11T04:57:26;7.55;;;2.45;;
49854;SDS011;35752;52.164;21.244;2022-07-11T04:59:52;5.68;;;2.13;;
49854;SDS011;35752;52.164;21.244;2022-07-11T05:02:17;7.90;;;2.72;;
49854;SDS011;35752;52.164;21.244;2022-07-11T05:04:44;6.85;;;2.30;;
49854;SDS011;35752;52.164;21.244;2022-07-11T05:07:10;6.68;;;2.92;;
49854;SDS011;35752;52.164;21.244;2022-07-11T05:09:38;8.68;;;2.63;;
49854;SDS011;35752;52.164;21.244;2022-07-11T05:12:04;10.43;;;2.70;;
49854;SDS011;35752;52.164;21.244;2022-07-11T05:14:31;11.38;;;2.50;;
49854;SDS011;35752;52.164;21.244;2022-07-11T05:16:57;5.53;;;2.40;;
49854;SDS011;35752;52.164;21.244;2022-07-11T05:19:23;5.57;;;2.33;;
49854;SDS011;35752;52.164;21.244;2022-07-11T05:21:49;7.25;;;2.47;;
49854;SDS011;35752;52.164;21.244;2022-07-11T05:24:14;8.63;;;2.70;;
49854;SDS011;35752;52.164;21.244;2022-07-11T05:26:40;5.05;;;2.10;;
49854;SDS011;35752;52.164;21.244;2022-07-11T05:29:09;9.38;;;2.45;;
49854;SDS011;35752;52.164;21.244;2022-07-11T05:31:35;15.45;;;3.10;;
49854;SDS011;35752;52.164;21.244;2022-07-11T05:34:01;7.25;;;2.17;;
49854;SDS011;35752;52.164;21.244;2022-07-11T05:36:27;5.32;;;2.30;;
49854;SDS011;35752;52.164;21.244;2022-07-11T05:38:52;4.80;;;2.78;;
49854;SDS011;35752;52.164;21.244;2022-07-11T05:41:18;5.30;;;2.70;;
49854;SDS011;35752;52.164;21.244;2022-07-11T05:43:44;6.40;;;2.55;;
49854;SDS011;35752;52.164;21.244;2022-07-11T05:46:09;5.95;;;2.60;;
49854;SDS011;35752;52.164;21.244;2022-07-11T05:48:35;5.63;;;3.30;;
49854;SDS011;35752;52.164;21.244;2022-07-11T05:51:01;6.45;;;3.50;;
49854;SDS011;35752;52.164;21.244;2022-07-11T05:53:26;5.82;;;3.22;;
49854;SDS011;35752;52.164;21.244;2022-07-11T05:55:52;13.18;;;3.10;;
49854;SDS011;35752;52.164;21.244;2022-07-11T05:58:18;7.80;;;3.05;;
49854;SDS011;35752;52.164;21.244;2022-07-11T06:00:43;7.00;;;2.95;;
49854;SDS011;35752;52.164;21.244;2022-07-11T06:03:09;7.78;;;2.75;;
49854;SDS011;35752;52.164;21.244;2022-07-11T06:05:35;6.68;;;3.08;;
49854;SDS011;35752;52.164;21.244;2022-07-11T06:08:00;7.25;;;3.63;;
49854;SDS011;35752;52.164;21.244;2022-07-11T06:10:44;6.63;;;2.83;;
49854;SDS011;35752;52.164;21.244;2022-07-11T06:13:10;8.65;;;2.78;;
49854;SDS011;35752;52.164;21.244;2022-07-11T06:15:36;5.85;;;2.35;;
49854;SDS011;35752;52.164;21.244;2022-07-11T06:18:02;11.35;;;2.95;;
49854;SDS011;35752;52.164;21.244;2022-07-11T06:20:27;6.32;;;3.05;;
49854;SDS011;35752;52.164;21.244;2022-07-11T06:22:54;6.03;;;3.03;;
49854;SDS011;35752;52.164;21.244;2022-07-11T06:25:19;7.13;;;3.20;;
49854;SDS011;35752;52.164;21.244;2022-07-11T06:27:45;6.47;;;3.33;;
49854;SDS011;35752;52.164;21.244;2022-07-11T06:30:11;7.85;;;3.55;;
49854;SDS011;35752;52.164;21.244;2022-07-11T06:32:38;7.80;;;4.25;;
49854;SDS011;35752;52.164;21.244;2022-07-11T06:35:04;13.75;;;4.47;;
49854;SDS011;35752;52.164;21.244;2022-07-11T06:37:31;6.75;;;3.42;;
49854;SDS011;35752;52.164;21.244;2022-07-11T06:39:57;6.20;;;4.25;;
49854;SDS011;35752;52.164;21.244;2022-07-11T06:42:23;10.88;;;4.75;;
49854;SDS011;35752;52.164;21.244;2022-07-11T06:44:48;7.45;;;5.10;;
49854;SDS011;35752;52.164;21.244;2022-07-11T06:47:14;9.02;;;4.53;;
49854;SDS011;35752;52.164;21.244;2022-07-11T06:49:40;6.97;;;5.13;;
49854;SDS011;35752;52.164;21.244;2022-07-11T06:52:05;7.70;;;5.10;;
49854;SDS011;35752;52.164;21.244;2022-07-11T06:54:31;8.43;;;4.65;;
49854;SDS011;35752;52.164;21.244;2022-07-11T06:56:57;9.90;;;5.78;;
49854;SDS011;35752;52.164;21.244;2022-07-11T06:59:22;10.05;;;5.15;;
49854;SDS011;35752;52.164;21.244;2022-07-11T07:01:48;10.73;;;5.00;;
49854;SDS011;35752;52.164;21.244;2022-07-11T07:04:14;7.28;;;5.47;;
49854;SDS011;35752;52.164;21.244;2022-07-11T07:06:40;5.57;;;4.88;;
49854;SDS011;35752;52.164;21.244;2022-07-11T07:09:05;6.15;;;4.75;;
49854;SDS011;35752;52.164;21.244;2022-07-11T07:11:32;5.18;;;4.43;;
49854;SDS011;35752;52.164;21.244;2022-07-11T07:13:58;4.90;;;4.40;;
49854;SDS011;35752;52.164;21.244;2022-07-11T07:16:24;7.90;;;4.45;;
49854;SDS011;35752;52.164;21.244;2022-07-11T07:18:49;6.68;;;5.18;;
49854;SDS011;35752;52.164;21.244;2022-07-11T07:21:16;7.53;;;4.50;;
49854;SDS011;35752;52.164;21.244;2022-07-11T07:23:42;4.88;;;3.53;;
49854;SDS011;35752;52.164;21.244;2022-07-11T07:26:08;8.20;;;3.92;;
49854;SDS011;35752;52.164;21.244;2022-07-11T07:28:34;7.55;;;3.42;;
49854;SDS011;35752;52.164;21.244;2022-07-11T07:30:59;6.15;;;3.65;;
49854;SDS011;35752;52.164;21.244;2022-07-11T07:33:25;4.75;;;3.38;;
49854;SDS011;35752;52.164;21.244;2022-07-11T07:35:51;4.88;;;2.65;;
49854;SDS011;35752;52.164;21.244;2022-07-11T07:38:16;5.93;;;3.28;;
49854;SDS011;35752;52.164;21.244;2022-07-11T07:40:42;6.47;;;2.85;;
49854;SDS011;35752;52.164;21.244;2022-07-11T07:43:08;5.90;;;2.50;;
49854;SDS011;35752;52.164;21.244;2022-07-11T07:45:34;6.45;;;2.90;;
49854;SDS011;35752;52.164;21.244;2022-07-11T07:48:00;4.88;;;2.58;;
49854;SDS011;35752;52.164;21.244;2022-07-11T07:50:26;6.43;;;2.67;;
49854;SDS011;35752;52.164;21.244;2022-07-11T07:52:53;4.50;;;2.25;;
49854;SDS011;35752;52.164;21.244;2022-07-11T07:55:19;6.32;;;3.00;;
49854;SDS011;35752;52.164;21.244;2022-07-11T07:57:45;6.22;;;2.78;;
49854;SDS011;35752;52.164;21.244;2022-07-11T08:00:11;5.47;;;3.58;;
49854;SDS011;35752;52.164;21.244;2022-07-11T08:02:55;6.68;;;2.70;;
49854;SDS011;35752;52.164;21.244;2022-07-11T08:05:21;6.47;;;2.58;;
49854;SDS011;35752;52.164;21.244;2022-07-11T08:07:47;4.97;;;2.80;;
49854;SDS011;35752;52.164;21.244;2022-07-11T08:10:12;4.95;;;2.70;;
49854;SDS011;35752;52.164;21.244;2022-07-11T08:12:39;6.53;;;2.80;;
49854;SDS011;35752;52.164;21.244;2022-07-11T08:15:05;6.57;;;2.78;;
49854;SDS011;35752;52.164;21.244;2022-07-11T08:17:31;7.47;;;3.03;;
49854;SDS011;35752;52.164;21.244;2022-07-11T08:19:57;7.07;;;2.88;;
49854;SDS011;35752;52.164;21.244;2022-07-11T08:22:23;8.45;;;3.25;;
49854;SDS011;35752;52.164;21.244;2022-07-11T08:24:50;5.80;;;3.17;;
49854;SDS011;35752;52.164;21.244;2022-07-11T08:27:16;5.40;;;4.07;;
49854;SDS011;35752;52.164;21.244;2022-07-11T08:29:41;6.20;;;4.40;;
49854;SDS011;35752;52.164;21.244;2022-07-11T08:32:07;7.18;;;4.47;;
49854;SDS011;35752;52.164;21.244;2022-07-11T08:34:33;7.65;;;4.93;;
49854;SDS011;35752;52.164;21.244;2022-07-11T08:36:59;8.68;;;5.20;;
49854;SDS011;35752;52.164;21.244;2022-07-11T08:39:25;10.57;;;5.75;;
49854;SDS011;35752;52.164;21.244;2022-07-11T08:41:50;8.38;;;5.40;;
49854;SDS011;35752;52.164;21.244;2022-07-11T08:44:16;11.35;;;5.72;;
49854;SDS011;35752;52.164;21.244;2022-07-11T08:46:42;12.18;;;5.30;;
49854;SDS011;35752;52.164;21.244;2022-07-11T08:49:11;15.18;;;6.03;;
49854;SDS011;35752;52.164;21.244;2022-07-11T08:51:37;10.18;;;6.10;;
49854;SDS011;35752;52.164;21.244;2022-07-11T08:54:03;8.02;;;4.80;;
49854;SDS011;35752;52.164;21.244;2022-07-11T08:56:29;7.05;;;5.22;;
49854;SDS011;35752;52.164;21.244;2022-07-11T08:58:57;10.73;;;5.07;;
49854;SDS011;35752;52.164;21.244;2022-07-11T09:01:31;5.65;;;3.45;;
49854;SDS011;35752;52.164;21.244;2022-07-11T09:04:00;6.35;;;3.28;;
49854;SDS011;35752;52.164;21.244;2022-07-11T09:06:26;5.25;;;3.63;;
49854;SDS011;35752;52.164;21.244;2022-07-11T09:08:56;5.45;;;3.58;;
49854;SDS011;35752;52.164;21.244;2022-07-11T09:11:23;8.80;;;3.55;;
49854;SDS011;35752;52.164;21.244;2022-07-11T09:13:49;7.63;;;2.88;;
49854;SDS011;35752;52.164;21.244;2022-07-11T09:16:14;5.88;;;2.95;;
49854;SDS011;35752;52.164;21.244;2022-07-11T09:18:42;4.55;;;2.60;;
49854;SDS011;35752;52.164;21.244;2022-07-11T09:23:55;3.83;;;2.88;;
49854;SDS011;35752;52.164;21.244;2022-07-11T09:26:42;5.68;;;3.17;;
49854;SDS011;35752;52.164;21.244;2022-07-11T09:29:09;5.32;;;3.28;;
49854;SDS011;35752;52.164;21.244;2022-07-11T09:31:40;5.78;;;2.80;;
49854;SDS011;35752;52.164;21.244;2022-07-11T09:39:01;5.57;;;3.05;;
49854;SDS011;35752;52.164;21.244;2022-07-11T09:41:30;5.18;;;3.00;;
49854;SDS011;35752;52.164;21.244;2022-07-11T09:46:32;5.40;;;3.33;;
49854;SDS011;35752;52.164;21.244;2022-07-11T09:49:01;5.18;;;3.30;;
49854;SDS011;35752;52.164;21.244;2022-07-11T09:51:28;4.03;;;2.70;;
49854;SDS011;35752;52.164;21.244;2022-07-11T09:53:54;5.40;;;3.90;;
49854;SDS011;35752;52.164;21.244;2022-07-11T09:56:31;4.03;;;2.55;;
49854;SDS011;35752;52.164;21.244;2022-07-11T09:58:59;3.33;;;2.38;;
49854;SDS011;35752;52.164;21.244;2022-07-11T10:01:26;4.70;;;3.00;;
49854;SDS011;35752;52.164;21.244;2022-07-11T10:03:53;4.28;;;2.45;;
49854;SDS011;35752;52.164;21.244;2022-07-11T10:06:19;3.75;;;2.70;;
49854;SDS011;35752;52.164;21.244;2022-07-11T10:08:45;4.03;;;2.72;;
49854;SDS011;35752;52.164;21.244;2022-07-11T10:11:11;4.88;;;2.88;;
49854;SDS011;35752;52.164;21.244;2022-07-11T10:13:38;2.63;;;1.73;;
49854;SDS011;35752;52.164;21.244;2022-07-11T10:16:08;3.13;;;1.70;;
49854;SDS011;35752;52.164;21.244;2022-07-11T10:18:50;2.40;;;1.38;;
49854;SDS011;35752;52.164;21.244;2022-07-11T10:24:15;2.80;;;0.50;;
49854;SDS011;35752;52.164;21.244;2022-07-11T10:29:27;1.05;;;0.30;;
49854;SDS011;35752;52.164;21.244;2022-07-11T10:32:10;2.42;;;0.40;;
49854;SDS011;35752;52.164;21.244;2022-07-11T10:34:36;4.53;;;0.40;;
49854;SDS011;35752;52.164;21.244;2022-07-11T10:37:03;2.47;;;0.40;;
49854;SDS011;35752;52.164;21.244;2022-07-11T10:39:30;1.35;;;0.55;;
49854;SDS011;35752;52.164;21.244;2022-07-11T10:41:58;1.00;;;0.43;;
49854;SDS011;35752;52.164;21.244;2022-07-11T10:44:26;0.50;;;0.20;;
49854;SDS011;35752;52.164;21.244;2022-07-11T10:46:52;0.90;;;0.15;;
49854;SDS011;35752;52.164;21.244;2022-07-11T10:49:30;0.38;;;0.20;;
49854;SDS011;35752;52.164;21.244;2022-07-11T10:52:04;2.17;;;0.25;;
49854;SDS011;35752;52.164;21.244;2022-07-11T10:57:27;1.02;;;0.20;;
49854;SDS011;35752;52.164;21.244;2022-07-11T11:02:30;1.50;;;0.20;;
49854;SDS011;35752;52.164;21.244;2022-07-11T11:04:57;0.95;;;0.20;;
49854;SDS011;35752;52.164;21.244;2022-07-11T11:09:59;0.15;;;0.10;;
49854;SDS011;35752;52.164;21.244;2022-07-11T11:23:28;1.08;;;0.28;;
49854;SDS011;35752;52.164;21.244;2022-07-11T11:26:14;0.80;;;0.20;;
49854;SDS011;35752;52.164;21.244;2022-07-11T11:29:05;3.50;;;0.28;;
49854;SDS011;35752;52.164;21.244;2022-07-11T11:31:32;1.65;;;0.25;;
49854;SDS011;35752;52.164;21.244;2022-07-11T11:33:58;1.27;;;0.30;;
49854;SDS011;35752;52.164;21.244;2022-07-11T11:36:26;1.08;;;0.10;;
49854;SDS011;35752;52.164;21.244;2022-07-11T11:38:52;1.75;;;0.13;;
49854;SDS011;35752;52.164;21.244;2022-07-11T11:41:22;5.13;;;0.30;;
49854;SDS011;35752;52.164;21.244;2022-07-11T11:43:53;2.53;;;0.30;;
49854;SDS011;35752;52.164;21.244;2022-07-11T11:46:24;1.38;;;0.30;;
49854;SDS011;35752;52.164;21.244;2022-07-11T11:48:54;0.60;;;0.20;;
49854;SDS011;35752;52.164;21.244;2022-07-11T11:51:21;1.25;;;0.20;;
49854;SDS011;35752;52.164;21.244;2022-07-11T11:53:48;1.55;;;0.30;;
49854;SDS011;35752;52.164;21.244;2022-07-11T11:58:56;0.32;;;0.17;;
49854;SDS011;35752;52.164;21.244;2022-07-11T12:01:29;1.38;;;0.20;;
49854;SDS011;35752;52.164;21.244;2022-07-11T12:03:57;0.88;;;0.22;;
49854;SDS011;35752;52.164;21.244;2022-07-11T12:06:25;0.88;;;0.20;;
49854;SDS011;35752;52.164;21.244;2022-07-11T12:09:10;4.47;;;0.65;;
49854;SDS011;35752;52.164;21.244;2022-07-11T12:11:38;7.35;;;0.38;;
49854;SDS011;35752;52.164;21.244;2022-07-11T12:14:06;1.45;;;0.35;;
49854;SDS011;35752;52.164;21.244;2022-07-11T12:16:34;1.63;;;0.22;;
49854;SDS011;35752;52.164;21.244;2022-07-11T12:19:04;0.10;;;0.10;;
49854;SDS011;35752;52.164;21.244;2022-07-11T12:21:34;1.25;;;0.38;;
49854;SDS011;35752;52.164;21.244;2022-07-11T12:24:02;1.10;;;0.40;;
49854;SDS011;35752;52.164;21.244;2022-07-11T12:26:31;0.98;;;0.10;;
49854;SDS011;35752;52.164;21.244;2022-07-11T12:32:11;1.55;;;0.30;;
49854;SDS011;35752;52.164;21.244;2022-07-11T12:37:08;0.70;;;0.20;;
49854;SDS011;35752;52.164;21.244;2022-07-11T12:39:39;0.43;;;0.20;;
49854;SDS011;35752;52.164;21.244;2022-07-11T12:42:23;0.25;;;0.10;;
49854;SDS011;35752;52.164;21.244;2022-07-11T12:44:56;1.95;;;0.30;;
49854;SDS011;35752;52.164;21.244;2022-07-11T12:47:28;1.38;;;0.25;;
49854;SDS011;35752;52.164;21.244;2022-07-11T12:49:54;0.50;;;0.10;;
49854;SDS011;35752;52.164;21.244;2022-07-11T12:52:21;0.60;;;0.20;;
49854;SDS011;35752;52.164;21.244;2022-07-11T12:54:47;1.17;;;0.25;;
49854;SDS011;35752;52.164;21.244;2022-07-11T12:57:15;0.68;;;0.25;;
49854;SDS011;35752;52.164;21.244;2022-07-11T12:59:44;0.82;;;0.15;;
49854;SDS011;35752;52.164;21.244;2022-07-11T13:02:11;0.20;;;0.10;;
49854;SDS011;35752;52.164;21.244;2022-07-11T13:04:47;1.23;;;0.10;;
49854;SDS011;35752;52.164;21.244;2022-07-11T13:07:19;0.38;;;0.10;;
49854;SDS011;35752;52.164;21.244;2022-07-11T13:10:07;3.70;;;0.40;;
49854;SDS011;35752;52.164;21.244;2022-07-11T13:12:34;1.83;;;0.30;;
49854;SDS011;35752;52.164;21.244;2022-07-11T13:15:01;4.55;;;0.50;;
49854;SDS011;35752;52.164;21.244;2022-07-11T13:17:34;1.60;;;0.43;;
49854;SDS011;35752;52.164;21.244;2022-07-11T13:20:01;2.28;;;0.30;;
49854;SDS011;35752;52.164;21.244;2022-07-11T13:22:27;2.67;;;0.38;;
49854;SDS011;35752;52.164;21.244;2022-07-11T13:24:52;2.92;;;0.75;;
49854;SDS011;35752;52.164;21.244;2022-07-11T13:27:19;1.27;;;0.30;;
49854;SDS011;35752;52.164;21.244;2022-07-11T13:29:44;3.85;;;0.40;;
49854;SDS011;35752;52.164;21.244;2022-07-11T13:32:10;1.40;;;0.57;;
49854;SDS011;35752;52.164;21.244;2022-07-11T13:34:36;2.70;;;0.40;;
49854;SDS011;35752;52.164;21.244;2022-07-11T13:37:01;1.30;;;0.35;;
49854;SDS011;35752;52.164;21.244;2022-07-11T13:39:27;3.78;;;0.40;;
49854;SDS011;35752;52.164;21.244;2022-07-11T13:41:53;2.30;;;0.40;;
49854;SDS011;35752;52.164;21.244;2022-07-11T13:44:18;1.75;;;0.30;;
49854;SDS011;35752;52.164;21.244;2022-07-11T13:46:44;2.55;;;0.50;;
49854;SDS011;35752;52.164;21.244;2022-07-11T13:49:10;12.13;;;1.02;;
49854;SDS011;35752;52.164;21.244;2022-07-11T13:51:37;1.45;;;0.28;;
49854;SDS011;35752;52.164;21.244;2022-07-11T13:54:03;1.30;;;0.30;;
49854;SDS011;35752;52.164;21.244;2022-07-11T13:56:29;1.48;;;0.55;;
49854;SDS011;35752;52.164;21.244;2022-07-11T13:58:54;1.45;;;0.45;;
49854;SDS011;35752;52.164;21.244;2022-07-11T14:01:20;1.95;;;0.35;;
49854;SDS011;35752;52.164;21.244;2022-07-11T14:03:46;3.47;;;0.40;;
49854;SDS011;35752;52.164;21.244;2022-07-11T14:06:11;2.75;;;0.25;;
49854;SDS011;35752;52.164;21.244;2022-07-11T14:08:37;4.53;;;0.32;;
49854;SDS011;35752;52.164;21.244;2022-07-11T14:11:03;3.10;;;0.43;;
49854;SDS011;35752;52.164;21.244;2022-07-11T14:13:28;8.15;;;0.60;;
49854;SDS011;35752;52.164;21.244;2022-07-11T14:15:54;2.15;;;0.25;;
49854;SDS011;35752;52.164;21.244;2022-07-11T14:18:20;1.38;;;0.30;;
49854;SDS011;35752;52.164;21.244;2022-07-11T14:20:46;2.30;;;0.30;;
49854;SDS011;35752;52.164;21.244;2022-07-11T14:23:11;0.68;;;0.30;;
49854;SDS011;35752;52.164;21.244;2022-07-11T14:25:37;2.63;;;0.50;;
49854;SDS011;35752;52.164;21.244;2022-07-11T14:28:05;2.33;;;0.38;;
49854;SDS011;35752;52.164;21.244;2022-07-11T14:30:31;2.78;;;0.40;;
49854;SDS011;35752;52.164;21.244;2022-07-11T14:32:57;2.45;;;0.40;;
49854;SDS011;35752;52.164;21.244;2022-07-11T14:35:22;3.65;;;0.55;;
49854;SDS011;35752;52.164;21.244;2022-07-11T14:37:48;3.00;;;0.50;;
49854;SDS011;35752;52.164;21.244;2022-07-11T14:40:14;2.40;;;0.60;;
49854;SDS011;35752;52.164;21.244;2022-07-11T14:42:40;1.75;;;0.38;;
49854;SDS011;35752;52.164;21.244;2022-07-11T14:45:06;2.83;;;0.50;;
49854;SDS011;35752;52.164;21.244;2022-07-11T14:47:32;2.63;;;0.70;;
49854;SDS011;35752;52.164;21.244;2022-07-11T14:49:58;1.67;;;0.60;;
49854;SDS011;35752;52.164;21.244;2022-07-11T14:52:24;4.18;;;0.82;;
49854;SDS011;35752;52.164;21.244;2022-07-11T14:54:50;2.72;;;0.60;;
49854;SDS011;35752;52.164;21.244;2022-07-11T14:57:15;1.63;;;0.50;;
49854;SDS011;35752;52.164;21.244;2022-07-11T14:59:41;1.88;;;0.57;;
49854;SDS011;35752;52.164;21.244;2022-07-11T15:02:06;3.00;;;0.50;;
49854;SDS011;35752;52.164;21.244;2022-07-11T15:04:32;4.28;;;0.55;;
49854;SDS011;35752;52.164;21.244;2022-07-11T15:06:58;2.33;;;0.70;;
49854;SDS011;35752;52.164;21.244;2022-07-11T15:09:42;1.42;;;0.40;;
49854;SDS011;35752;52.164;21.244;2022-07-11T15:12:26;1.40;;;0.50;;
49854;SDS011;35752;52.164;21.244;2022-07-11T15:14:53;3.05;;;0.82;;
49854;SDS011;35752;52.164;21.244;2022-07-11T15:17:19;4.38;;;0.85;;
49854;SDS011;35752;52.164;21.244;2022-07-11T15:19:46;3.13;;;0.55;;